sensor_id;sensor_type;location;lat;lon;timestamp;P1;durP1;ratioP1;P2;durP2;ratioP2
23517;SDS011;11935;50.878;4.392;2022-08-30T00:01:55;11.60;;;4.53;;
23517;SDS011;11935;50.878;4.392;2022-08-30T00:04:21;8.90;;;3.75;;
23517;SDS011;11935;50.878;4.392;2022-08-30T00:06:48;13.07;;;4.35;;
23517;SDS011;11935;50.878;4.392;2022-08-30T00:09:14;12.13;;;4.80;;
23517;SDS011;11935;50.878;4.392;2022-08-30T00:11:40;8.38;;;4.25;;
23517;SDS011;11935;50.878;4.392;2022-08-30T00:14:06;9.60;;;4.25;;
23517;SDS011;11935;50.878;4.392;2022-08-30T00:16:32;10.88;;;4.68;;
23517;SDS011;11935;50.878;4.392;2022-08-30T00:18:58;11.40;;;4.50;;
23517;SDS011;11935;50.878;4.392;2022-08-30T00:21:26;10.73;;;5.00;;
23517;SDS011;11935;50.878;4.392;2022-08-30T00:23:52;13.80;;;5.18;;
23517;SDS011;11935;50.878;4.392;2022-08-30T00:26:18;9.00;;;4.53;;
23517;SDS011;11935;50.878;4.392;2022-08-30T00:28:44;7.90;;;4.93;;
23517;SDS011;11935;50.878;4.392;2022-08-30T00:31:10;10.60;;;4.68;;
23517;SDS011;11935;50.878;4.392;2022-08-30T00:33:37;8.38;;;4.60;;
23517;SDS011;11935;50.878;4.392;2022-08-30T00:36:04;10.37;;;5.17;;
23517;SDS011;11935;50.878;4.392;2022-08-30T00:38:30;9.50;;;4.63;;
23517;SDS011;11935;50.878;4.392;2022-08-30T00:40:59;8.80;;;4.90;;
23517;SDS011;11935;50.878;4.392;2022-08-30T00:43:26;12.27;;;4.72;;
23517;SDS011;11935;50.878;4.392;2022-08-30T00:45:52;10.52;;;5.30;;
23517;SDS011;11935;50.878;4.392;2022-08-30T00:48:19;12.75;;;4.70;;
23517;SDS011;11935;50.878;4.392;2022-08-30T00:50:55;12.82;;;4.65;;
23517;SDS011;11935;50.878;4.392;2022-08-30T00:53:33;28.63;;;5.60;;
23517;SDS011;11935;50.878;4.392;2022-08-30T00:55:59;19.02;;;4.97;;
23517;SDS011;11935;50.878;4.392;2022-08-30T00:58:27;12.48;;;5.07;;
23517;SDS011;11935;50.878;4.392;2022-08-30T01:00:54;15.32;;;5.32;;
23517;SDS011;11935;50.878;4.392;2022-08-30T01:03:22;9.33;;;4.90;;
23517;SDS011;11935;50.878;4.392;2022-08-30T01:05:48;10.40;;;5.05;;
23517;SDS011;11935;50.878;4.392;2022-08-30T01:08:16;10.30;;;5.40;;
23517;SDS011;11935;50.878;4.392;2022-08-30T01:10:42;12.57;;;5.32;;
23517;SDS011;11935;50.878;4.392;2022-08-30T01:13:08;11.27;;;4.78;;
23517;SDS011;11935;50.878;4.392;2022-08-30T01:15:34;15.55;;;5.47;;
23517;SDS011;11935;50.878;4.392;2022-08-30T01:18:03;11.50;;;5.43;;
23517;SDS011;11935;50.878;4.392;2022-08-30T01:20:34;8.90;;;5.05;;
23517;SDS011;11935;50.878;4.392;2022-08-30T01:23:13;9.30;;;5.38;;
23517;SDS011;11935;50.878;4.392;2022-08-30T01:25:39;16.40;;;5.82;;
23517;SDS011;11935;50.878;4.392;2022-08-30T01:28:11;11.55;;;6.28;;
23517;SDS011;11935;50.878;4.392;2022-08-30T01:30:38;14.18;;;5.65;;
23517;SDS011;11935;50.878;4.392;2022-08-30T01:35:54;12.95;;;5.78;;
23517;SDS011;11935;50.878;4.392;2022-08-30T01:38:23;10.68;;;5.45;;
23517;SDS011;11935;50.878;4.392;2022-08-30T01:40:55;14.50;;;5.13;;
23517;SDS011;11935;50.878;4.392;2022-08-30T01:43:21;9.75;;;5.72;;
23517;SDS011;11935;50.878;4.392;2022-08-30T01:45:47;11.65;;;5.32;;
23517;SDS011;11935;50.878;4.392;2022-08-30T01:48:13;12.38;;;5.45;;
23517;SDS011;11935;50.878;4.392;2022-08-30T01:50:40;8.32;;;5.05;;
23517;SDS011;11935;50.878;4.392;2022-08-30T01:53:06;11.00;;;5.72;;
23517;SDS011;11935;50.878;4.392;2022-08-30T01:55:33;10.65;;;5.75;;
23517;SDS011;11935;50.878;4.392;2022-08-30T01:57:59;12.68;;;5.65;;
23517;SDS011;11935;50.878;4.392;2022-08-30T02:00:26;18.33;;;6.40;;
23517;SDS011;11935;50.878;4.392;2022-08-30T02:02:52;10.23;;;5.95;;
23517;SDS011;11935;50.878;4.392;2022-08-30T02:05:18;12.45;;;5.45;;
23517;SDS011;11935;50.878;4.392;2022-08-30T02:07:44;13.13;;;5.90;;
23517;SDS011;11935;50.878;4.392;2022-08-30T02:10:11;11.65;;;5.43;;
23517;SDS011;11935;50.878;4.392;2022-08-30T02:12:39;17.52;;;5.80;;
23517;SDS011;11935;50.878;4.392;2022-08-30T02:15:05;10.73;;;5.78;;
23517;SDS011;11935;50.878;4.392;2022-08-30T02:17:31;11.30;;;5.68;;
23517;SDS011;11935;50.878;4.392;2022-08-30T02:19:57;13.10;;;5.60;;
23517;SDS011;11935;50.878;4.392;2022-08-30T02:22:23;9.70;;;5.75;;
23517;SDS011;11935;50.878;4.392;2022-08-30T02:24:49;13.25;;;5.75;;
23517;SDS011;11935;50.878;4.392;2022-08-30T02:27:15;9.13;;;5.78;;
23517;SDS011;11935;50.878;4.392;2022-08-30T02:29:41;11.38;;;6.13;;
23517;SDS011;11935;50.878;4.392;2022-08-30T02:32:08;11.02;;;5.82;;
23517;SDS011;11935;50.878;4.392;2022-08-30T02:34:34;11.15;;;6.55;;
23517;SDS011;11935;50.878;4.392;2022-08-30T02:37:00;9.90;;;5.90;;
23517;SDS011;11935;50.878;4.392;2022-08-30T02:39:26;15.52;;;7.07;;
23517;SDS011;11935;50.878;4.392;2022-08-30T02:41:52;12.32;;;6.78;;
23517;SDS011;11935;50.878;4.392;2022-08-30T02:44:18;10.38;;;5.88;;
23517;SDS011;11935;50.878;4.392;2022-08-30T02:46:44;12.48;;;6.28;;
23517;SDS011;11935;50.878;4.392;2022-08-30T02:49:12;10.65;;;5.97;;
23517;SDS011;11935;50.878;4.392;2022-08-30T02:51:38;12.70;;;5.88;;
23517;SDS011;11935;50.878;4.392;2022-08-30T02:54:05;12.73;;;6.43;;
23517;SDS011;11935;50.878;4.392;2022-08-30T02:56:31;12.70;;;6.88;;
23517;SDS011;11935;50.878;4.392;2022-08-30T02:58:57;12.82;;;7.07;;
23517;SDS011;11935;50.878;4.392;2022-08-30T03:01:23;10.93;;;6.20;;
23517;SDS011;11935;50.878;4.392;2022-08-30T03:03:49;13.57;;;7.45;;
23517;SDS011;11935;50.878;4.392;2022-08-30T03:06:15;13.13;;;6.50;;
23517;SDS011;11935;50.878;4.392;2022-08-30T03:08:42;15.27;;;6.57;;
23517;SDS011;11935;50.878;4.392;2022-08-30T03:11:09;9.65;;;6.43;;
23517;SDS011;11935;50.878;4.392;2022-08-30T03:13:36;9.18;;;6.35;;
23517;SDS011;11935;50.878;4.392;2022-08-30T03:16:02;12.30;;;6.28;;
23517;SDS011;11935;50.878;4.392;2022-08-30T03:18:29;12.18;;;6.63;;
23517;SDS011;11935;50.878;4.392;2022-08-30T03:20:55;10.93;;;6.72;;
23517;SDS011;11935;50.878;4.392;2022-08-30T03:23:21;12.70;;;6.88;;
23517;SDS011;11935;50.878;4.392;2022-08-30T03:25:48;15.43;;;6.95;;
23517;SDS011;11935;50.878;4.392;2022-08-30T03:28:14;11.45;;;6.72;;
23517;SDS011;11935;50.878;4.392;2022-08-30T03:30:40;10.68;;;6.85;;
23517;SDS011;11935;50.878;4.392;2022-08-30T03:33:06;12.98;;;6.18;;
23517;SDS011;11935;50.878;4.392;2022-08-30T03:35:32;12.25;;;6.50;;
23517;SDS011;11935;50.878;4.392;2022-08-30T03:37:58;12.98;;;6.68;;
23517;SDS011;11935;50.878;4.392;2022-08-30T03:40:24;13.00;;;6.63;;
23517;SDS011;11935;50.878;4.392;2022-08-30T03:42:50;15.93;;;6.75;;
23517;SDS011;11935;50.878;4.392;2022-08-30T03:45:17;11.05;;;6.40;;
23517;SDS011;11935;50.878;4.392;2022-08-30T03:47:43;16.38;;;6.90;;
23517;SDS011;11935;50.878;4.392;2022-08-30T03:50:10;13.10;;;6.38;;
23517;SDS011;11935;50.878;4.392;2022-08-30T03:52:37;14.55;;;6.78;;
23517;SDS011;11935;50.878;4.392;2022-08-30T03:55:03;12.07;;;6.40;;
23517;SDS011;11935;50.878;4.392;2022-08-30T03:57:30;14.48;;;6.70;;
23517;SDS011;11935;50.878;4.392;2022-08-30T03:59:56;12.27;;;6.40;;
23517;SDS011;11935;50.878;4.392;2022-08-30T04:02:22;9.40;;;6.35;;
23517;SDS011;11935;50.878;4.392;2022-08-30T04:04:48;11.60;;;7.00;;
23517;SDS011;11935;50.878;4.392;2022-08-30T04:07:14;12.40;;;7.43;;
23517;SDS011;11935;50.878;4.392;2022-08-30T04:09:40;12.77;;;6.80;;
23517;SDS011;11935;50.878;4.392;2022-08-30T04:12:06;14.27;;;6.93;;
23517;SDS011;11935;50.878;4.392;2022-08-30T04:14:33;14.10;;;7.47;;
23517;SDS011;11935;50.878;4.392;2022-08-30T04:16:59;20.17;;;7.30;;
23517;SDS011;11935;50.878;4.392;2022-08-30T04:19:25;10.82;;;7.30;;
23517;SDS011;11935;50.878;4.392;2022-08-30T04:21:51;14.00;;;7.22;;
23517;SDS011;11935;50.878;4.392;2022-08-30T04:24:18;15.82;;;7.00;;
23517;SDS011;11935;50.878;4.392;2022-08-30T04:26:44;14.85;;;7.25;;
23517;SDS011;11935;50.878;4.392;2022-08-30T04:29:10;14.27;;;7.10;;
23517;SDS011;11935;50.878;4.392;2022-08-30T04:31:40;13.82;;;7.38;;
23517;SDS011;11935;50.878;4.392;2022-08-30T04:34:07;14.57;;;7.45;;
23517;SDS011;11935;50.878;4.392;2022-08-30T04:36:33;17.02;;;7.65;;
23517;SDS011;11935;50.878;4.392;2022-08-30T04:38:59;11.55;;;7.50;;
23517;SDS011;11935;50.878;4.392;2022-08-30T04:41:25;15.93;;;7.32;;
23517;SDS011;11935;50.878;4.392;2022-08-30T04:43:51;16.27;;;7.35;;
23517;SDS011;11935;50.878;4.392;2022-08-30T04:46:17;13.90;;;8.15;;
23517;SDS011;11935;50.878;4.392;2022-08-30T04:48:43;11.70;;;6.85;;
23517;SDS011;11935;50.878;4.392;2022-08-30T04:51:11;17.20;;;10.70;;
23517;SDS011;11935;50.878;4.392;2022-08-30T04:53:38;16.85;;;7.68;;
23517;SDS011;11935;50.878;4.392;2022-08-30T04:56:07;13.90;;;7.80;;
23517;SDS011;11935;50.878;4.392;2022-08-30T04:58:34;16.60;;;8.00;;
23517;SDS011;11935;50.878;4.392;2022-08-30T05:01:00;16.42;;;8.18;;
23517;SDS011;11935;50.878;4.392;2022-08-30T05:03:26;11.55;;;8.07;;
23517;SDS011;11935;50.878;4.392;2022-08-30T05:05:52;13.73;;;7.75;;
23517;SDS011;11935;50.878;4.392;2022-08-30T05:08:19;16.90;;;8.57;;
23517;SDS011;11935;50.878;4.392;2022-08-30T05:10:46;16.88;;;7.90;;
23517;SDS011;11935;50.878;4.392;2022-08-30T05:13:13;13.07;;;7.45;;
23517;SDS011;11935;50.878;4.392;2022-08-30T05:15:40;18.40;;;8.02;;
23517;SDS011;11935;50.878;4.392;2022-08-30T05:18:06;13.25;;;8.60;;
23517;SDS011;11935;50.878;4.392;2022-08-30T05:20:41;20.17;;;9.30;;
23517;SDS011;11935;50.878;4.392;2022-08-30T05:23:08;16.52;;;7.65;;
23517;SDS011;11935;50.878;4.392;2022-08-30T05:25:36;18.58;;;7.93;;
23517;SDS011;11935;50.878;4.392;2022-08-30T05:28:03;11.93;;;7.82;;
23517;SDS011;11935;50.878;4.392;2022-08-30T05:30:31;15.65;;;8.15;;
23517;SDS011;11935;50.878;4.392;2022-08-30T05:32:57;15.35;;;8.13;;
23517;SDS011;11935;50.878;4.392;2022-08-30T05:35:23;20.00;;;8.02;;
23517;SDS011;11935;50.878;4.392;2022-08-30T05:37:49;13.52;;;8.57;;
23517;SDS011;11935;50.878;4.392;2022-08-30T05:40:15;13.38;;;7.90;;
23517;SDS011;11935;50.878;4.392;2022-08-30T05:42:42;19.15;;;8.25;;
23517;SDS011;11935;50.878;4.392;2022-08-30T05:45:08;17.85;;;7.80;;
23517;SDS011;11935;50.878;4.392;2022-08-30T05:47:35;11.23;;;7.85;;
23517;SDS011;11935;50.878;4.392;2022-08-30T05:50:01;12.15;;;8.20;;
23517;SDS011;11935;50.878;4.392;2022-08-30T05:52:27;11.07;;;7.70;;
23517;SDS011;11935;50.878;4.392;2022-08-30T05:54:54;14.40;;;7.82;;
23517;SDS011;11935;50.878;4.392;2022-08-30T05:57:23;16.60;;;8.60;;
23517;SDS011;11935;50.878;4.392;2022-08-30T05:59:49;13.35;;;7.57;;
23517;SDS011;11935;50.878;4.392;2022-08-30T06:02:15;15.65;;;8.73;;
23517;SDS011;11935;50.878;4.392;2022-08-30T06:04:41;14.75;;;8.23;;
23517;SDS011;11935;50.878;4.392;2022-08-30T06:07:07;12.75;;;8.10;;
23517;SDS011;11935;50.878;4.392;2022-08-30T06:09:34;11.80;;;7.63;;
23517;SDS011;11935;50.878;4.392;2022-08-30T06:12:00;17.98;;;8.48;;
23517;SDS011;11935;50.878;4.392;2022-08-30T06:14:26;14.73;;;7.95;;
23517;SDS011;11935;50.878;4.392;2022-08-30T06:16:52;12.60;;;8.05;;
23517;SDS011;11935;50.878;4.392;2022-08-30T06:19:18;15.88;;;8.55;;
23517;SDS011;11935;50.878;4.392;2022-08-30T06:21:49;12.07;;;8.68;;
23517;SDS011;11935;50.878;4.392;2022-08-30T06:24:16;15.52;;;7.82;;
23517;SDS011;11935;50.878;4.392;2022-08-30T06:26:43;9.57;;;8.13;;
23517;SDS011;11935;50.878;4.392;2022-08-30T06:29:11;13.57;;;8.27;;
23517;SDS011;11935;50.878;4.392;2022-08-30T06:31:38;11.43;;;7.50;;
23517;SDS011;11935;50.878;4.392;2022-08-30T06:34:04;13.00;;;8.73;;
23517;SDS011;11935;50.878;4.392;2022-08-30T06:36:30;19.17;;;9.30;;
23517;SDS011;11935;50.878;4.392;2022-08-30T06:38:57;15.18;;;9.10;;
23517;SDS011;11935;50.878;4.392;2022-08-30T06:41:27;13.85;;;8.85;;
23517;SDS011;11935;50.878;4.392;2022-08-30T06:43:54;12.38;;;9.07;;
23517;SDS011;11935;50.878;4.392;2022-08-30T06:46:29;16.42;;;9.00;;
23517;SDS011;11935;50.878;4.392;2022-08-30T06:48:56;12.98;;;9.00;;
23517;SDS011;11935;50.878;4.392;2022-08-30T06:51:23;15.05;;;8.98;;
23517;SDS011;11935;50.878;4.392;2022-08-30T06:53:50;15.82;;;9.38;;
23517;SDS011;11935;50.878;4.392;2022-08-30T06:56:17;18.55;;;8.32;;
23517;SDS011;11935;50.878;4.392;2022-08-30T06:58:43;10.45;;;8.43;;
23517;SDS011;11935;50.878;4.392;2022-08-30T07:01:11;16.20;;;9.10;;
23517;SDS011;11935;50.878;4.392;2022-08-30T07:03:39;14.05;;;8.57;;
23517;SDS011;11935;50.878;4.392;2022-08-30T07:06:05;14.90;;;8.93;;
23517;SDS011;11935;50.878;4.392;2022-08-30T07:08:31;20.35;;;9.10;;
23517;SDS011;11935;50.878;4.392;2022-08-30T07:10:57;15.77;;;8.65;;
23517;SDS011;11935;50.878;4.392;2022-08-30T07:13:24;18.88;;;8.65;;
23517;SDS011;11935;50.878;4.392;2022-08-30T07:15:52;15.38;;;8.70;;
23517;SDS011;11935;50.878;4.392;2022-08-30T07:18:18;15.00;;;9.25;;
23517;SDS011;11935;50.878;4.392;2022-08-30T07:21:07;13.40;;;8.10;;
23517;SDS011;11935;50.878;4.392;2022-08-30T07:23:33;10.75;;;8.63;;
23517;SDS011;11935;50.878;4.392;2022-08-30T07:26:02;13.52;;;8.85;;
23517;SDS011;11935;50.878;4.392;2022-08-30T07:28:28;12.60;;;8.25;;
23517;SDS011;11935;50.878;4.392;2022-08-30T07:30:54;12.40;;;8.32;;
23517;SDS011;11935;50.878;4.392;2022-08-30T07:33:20;14.02;;;8.32;;
23517;SDS011;11935;50.878;4.392;2022-08-30T07:35:46;11.07;;;8.32;;
23517;SDS011;11935;50.878;4.392;2022-08-30T07:38:13;13.40;;;7.60;;
23517;SDS011;11935;50.878;4.392;2022-08-30T07:40:39;10.88;;;7.28;;
23517;SDS011;11935;50.878;4.392;2022-08-30T07:43:05;18.50;;;8.40;;
23517;SDS011;11935;50.878;4.392;2022-08-30T07:45:31;10.65;;;7.88;;
23517;SDS011;11935;50.878;4.392;2022-08-30T07:47:57;14.48;;;7.10;;
23517;SDS011;11935;50.878;4.392;2022-08-30T07:50:23;12.00;;;7.13;;
23517;SDS011;11935;50.878;4.392;2022-08-30T07:52:49;13.88;;;7.50;;
23517;SDS011;11935;50.878;4.392;2022-08-30T07:55:16;18.80;;;7.60;;
23517;SDS011;11935;50.878;4.392;2022-08-30T07:57:42;8.85;;;6.85;;
23517;SDS011;11935;50.878;4.392;2022-08-30T08:00:08;14.65;;;7.15;;
23517;SDS011;11935;50.878;4.392;2022-08-30T08:02:35;12.10;;;7.28;;
23517;SDS011;11935;50.878;4.392;2022-08-30T08:05:01;10.98;;;6.95;;
23517;SDS011;11935;50.878;4.392;2022-08-30T08:07:30;11.75;;;6.57;;
23517;SDS011;11935;50.878;4.392;2022-08-30T08:09:56;9.80;;;6.97;;
23517;SDS011;11935;50.878;4.392;2022-08-30T08:12:22;11.10;;;6.25;;
23517;SDS011;11935;50.878;4.392;2022-08-30T08:14:56;11.18;;;6.63;;
23517;SDS011;11935;50.878;4.392;2022-08-30T08:17:22;10.63;;;6.15;;
23517;SDS011;11935;50.878;4.392;2022-08-30T08:19:48;9.40;;;6.03;;
23517;SDS011;11935;50.878;4.392;2022-08-30T08:22:14;15.93;;;6.03;;
23517;SDS011;11935;50.878;4.392;2022-08-30T08:24:40;14.40;;;6.55;;
23517;SDS011;11935;50.878;4.392;2022-08-30T08:27:06;11.50;;;5.57;;
23517;SDS011;11935;50.878;4.392;2022-08-30T08:29:32;9.85;;;5.78;;
23517;SDS011;11935;50.878;4.392;2022-08-30T08:34:29;10.73;;;5.03;;
23517;SDS011;11935;50.878;4.392;2022-08-30T08:36:55;13.40;;;5.50;;
23517;SDS011;11935;50.878;4.392;2022-08-30T08:39:21;8.43;;;4.90;;
23517;SDS011;11935;50.878;4.392;2022-08-30T08:47:10;9.27;;;4.55;;
23517;SDS011;11935;50.878;4.392;2022-08-30T08:49:54;10.80;;;5.53;;
23517;SDS011;11935;50.878;4.392;2022-08-30T08:52:26;8.25;;;5.00;;
23517;SDS011;11935;50.878;4.392;2022-08-30T08:55:13;9.18;;;4.93;;
23517;SDS011;11935;50.878;4.392;2022-08-30T08:57:40;10.35;;;5.13;;
23517;SDS011;11935;50.878;4.392;2022-08-30T09:00:07;7.60;;;5.00;;
23517;SDS011;11935;50.878;4.392;2022-08-30T09:05:07;7.15;;;4.97;;
23517;SDS011;11935;50.878;4.392;2022-08-30T09:07:35;7.10;;;4.13;;
23517;SDS011;11935;50.878;4.392;2022-08-30T09:10:03;11.20;;;5.00;;
23517;SDS011;11935;50.878;4.392;2022-08-30T09:12:29;7.97;;;4.40;;
23517;SDS011;11935;50.878;4.392;2022-08-30T09:17:58;6.43;;;3.85;;
23517;SDS011;11935;50.878;4.392;2022-08-30T09:22:55;7.80;;;4.40;;
23517;SDS011;11935;50.878;4.392;2022-08-30T09:25:22;7.47;;;4.28;;
23517;SDS011;11935;50.878;4.392;2022-08-30T09:27:49;6.13;;;3.75;;
23517;SDS011;11935;50.878;4.392;2022-08-30T09:30:17;7.22;;;4.00;;
23517;SDS011;11935;50.878;4.392;2022-08-30T09:35:32;7.45;;;4.32;;
23517;SDS011;11935;50.878;4.392;2022-08-30T09:45:31;6.53;;;3.60;;
23517;SDS011;11935;50.878;4.392;2022-08-30T09:47:58;12.82;;;3.67;;
23517;SDS011;11935;50.878;4.392;2022-08-30T09:50:24;10.32;;;3.55;;
23517;SDS011;11935;50.878;4.392;2022-08-30T09:52:56;11.60;;;3.53;;
23517;SDS011;11935;50.878;4.392;2022-08-30T09:55:36;9.75;;;3.42;;
23517;SDS011;11935;50.878;4.392;2022-08-30T10:00:36;7.97;;;3.70;;
23517;SDS011;11935;50.878;4.392;2022-08-30T10:03:14;7.50;;;3.45;;
23517;SDS011;11935;50.878;4.392;2022-08-30T10:05:55;10.70;;;3.63;;
23517;SDS011;11935;50.878;4.392;2022-08-30T10:10:58;8.50;;;2.88;;
23517;SDS011;11935;50.878;4.392;2022-08-30T10:18:39;6.47;;;2.90;;
23517;SDS011;11935;50.878;4.392;2022-08-30T10:21:17;9.43;;;2.70;;
23517;SDS011;11935;50.878;4.392;2022-08-30T10:28:41;5.53;;;2.60;;
23517;SDS011;11935;50.878;4.392;2022-08-30T10:31:10;8.20;;;2.88;;
23517;SDS011;11935;50.878;4.392;2022-08-30T10:33:44;8.02;;;2.63;;
23517;SDS011;11935;50.878;4.392;2022-08-30T10:36:13;10.48;;;2.88;;
23517;SDS011;11935;50.878;4.392;2022-08-30T10:38:47;5.77;;;2.23;;
23517;SDS011;11935;50.878;4.392;2022-08-30T10:41:24;7.18;;;2.70;;
23517;SDS011;11935;50.878;4.392;2022-08-30T10:49:45;7.35;;;2.50;;
23517;SDS011;11935;50.878;4.392;2022-08-30T10:57:35;7.10;;;2.53;;
23517;SDS011;11935;50.878;4.392;2022-08-30T11:00:05;14.40;;;4.97;;
23517;SDS011;11935;50.878;4.392;2022-08-30T11:08:26;5.72;;;2.70;;
23517;SDS011;11935;50.878;4.392;2022-08-30T11:10:22;8.80;;;2.85;;
23517;SDS011;11935;50.878;4.392;2022-08-30T11:13:10;8.00;;;2.65;;
23517;SDS011;11935;50.878;4.392;2022-08-30T11:18:22;11.13;;;3.33;;
23517;SDS011;11935;50.878;4.392;2022-08-30T11:20:51;10.40;;;2.78;;
23517;SDS011;11935;50.878;4.392;2022-08-30T11:36:06;9.07;;;3.17;;
23517;SDS011;11935;50.878;4.392;2022-08-30T11:41:06;7.72;;;2.55;;
23517;SDS011;11935;50.878;4.392;2022-08-30T11:46:16;6.88;;;2.65;;
23517;SDS011;11935;50.878;4.392;2022-08-30T11:48:47;6.97;;;2.50;;
23517;SDS011;11935;50.878;4.392;2022-08-30T11:51:22;7.00;;;2.33;;
23517;SDS011;11935;50.878;4.392;2022-08-30T11:59:18;6.57;;;2.60;;
23517;SDS011;11935;50.878;4.392;2022-08-30T12:01:49;7.20;;;2.70;;
23517;SDS011;11935;50.878;4.392;2022-08-30T12:07:07;5.45;;;2.40;;
23517;SDS011;11935;50.878;4.392;2022-08-30T12:12:01;8.38;;;2.30;;
23517;SDS011;11935;50.878;4.392;2022-08-30T12:14:39;7.22;;;2.20;;
23517;SDS011;11935;50.878;4.392;2022-08-30T12:19:50;7.55;;;2.33;;
23517;SDS011;11935;50.878;4.392;2022-08-30T12:22:17;8.88;;;2.83;;
23517;SDS011;11935;50.878;4.392;2022-08-30T12:24:45;9.25;;;2.42;;
23517;SDS011;11935;50.878;4.392;2022-08-30T12:27:29;7.07;;;2.47;;
23517;SDS011;11935;50.878;4.392;2022-08-30T12:29:56;8.90;;;2.83;;
23517;SDS011;11935;50.878;4.392;2022-08-30T12:34:56;5.50;;;2.40;;
23517;SDS011;11935;50.878;4.392;2022-08-30T12:37:27;8.02;;;2.78;;
23517;SDS011;11935;50.878;4.392;2022-08-30T12:42:34;9.43;;;2.63;;
23517;SDS011;11935;50.878;4.392;2022-08-30T12:45:03;4.78;;;2.22;;
23517;SDS011;11935;50.878;4.392;2022-08-30T12:52:58;8.73;;;2.65;;
23517;SDS011;11935;50.878;4.392;2022-08-30T12:55:26;5.05;;;2.50;;
23517;SDS011;11935;50.878;4.392;2022-08-30T12:57:59;9.93;;;2.30;;
23517;SDS011;11935;50.878;4.392;2022-08-30T13:03:33;8.77;;;2.40;;
23517;SDS011;11935;50.878;4.392;2022-08-30T13:06:03;8.02;;;2.25;;
23517;SDS011;11935;50.878;4.392;2022-08-30T13:08:55;7.40;;;2.10;;
23517;SDS011;11935;50.878;4.392;2022-08-30T13:13:55;5.35;;;2.30;;
23517;SDS011;11935;50.878;4.392;2022-08-30T13:16:42;7.95;;;2.15;;
23517;SDS011;11935;50.878;4.392;2022-08-30T13:19:33;6.65;;;2.15;;
23517;SDS011;11935;50.878;4.392;2022-08-30T13:22:01;7.43;;;2.55;;
23517;SDS011;11935;50.878;4.392;2022-08-30T13:24:27;7.53;;;3.05;;
23517;SDS011;11935;50.878;4.392;2022-08-30T13:26:54;8.75;;;2.28;;
23517;SDS011;11935;50.878;4.392;2022-08-30T13:29:23;9.05;;;2.50;;
23517;SDS011;11935;50.878;4.392;2022-08-30T13:31:50;9.02;;;2.75;;
23517;SDS011;11935;50.878;4.392;2022-08-30T13:34:17;10.75;;;2.13;;
23517;SDS011;11935;50.878;4.392;2022-08-30T13:36:55;7.47;;;2.00;;
23517;SDS011;11935;50.878;4.392;2022-08-30T13:39:42;6.85;;;2.00;;
23517;SDS011;11935;50.878;4.392;2022-08-30T13:42:08;11.55;;;2.10;;
23517;SDS011;11935;50.878;4.392;2022-08-30T13:44:34;7.32;;;1.88;;
23517;SDS011;11935;50.878;4.392;2022-08-30T13:47:00;5.78;;;2.00;;
23517;SDS011;11935;50.878;4.392;2022-08-30T13:49:28;7.38;;;1.85;;
23517;SDS011;11935;50.878;4.392;2022-08-30T13:51:55;4.10;;;1.77;;
23517;SDS011;11935;50.878;4.392;2022-08-30T13:54:21;8.27;;;2.25;;
23517;SDS011;11935;50.878;4.392;2022-08-30T13:56:48;6.28;;;1.73;;
23517;SDS011;11935;50.878;4.392;2022-08-30T13:59:14;7.32;;;2.28;;
23517;SDS011;11935;50.878;4.392;2022-08-30T14:01:40;4.63;;;1.77;;
23517;SDS011;11935;50.878;4.392;2022-08-30T14:04:07;6.57;;;1.98;;
23517;SDS011;11935;50.878;4.392;2022-08-30T14:06:32;7.70;;;2.15;;
23517;SDS011;11935;50.878;4.392;2022-08-30T14:08:58;6.20;;;1.55;;
23517;SDS011;11935;50.878;4.392;2022-08-30T14:11:24;5.32;;;1.80;;
23517;SDS011;11935;50.878;4.392;2022-08-30T14:13:51;12.07;;;2.63;;
23517;SDS011;11935;50.878;4.392;2022-08-30T14:16:17;9.20;;;2.38;;
23517;SDS011;11935;50.878;4.392;2022-08-30T14:18:43;6.50;;;2.33;;
23517;SDS011;11935;50.878;4.392;2022-08-30T14:21:09;6.55;;;1.90;;
23517;SDS011;11935;50.878;4.392;2022-08-30T14:23:35;6.07;;;1.92;;
23517;SDS011;11935;50.878;4.392;2022-08-30T14:26:02;6.57;;;2.05;;
23517;SDS011;11935;50.878;4.392;2022-08-30T14:28:29;4.63;;;2.00;;
23517;SDS011;11935;50.878;4.392;2022-08-30T14:30:55;6.88;;;2.15;;
23517;SDS011;11935;50.878;4.392;2022-08-30T14:33:21;6.40;;;1.88;;
23517;SDS011;11935;50.878;4.392;2022-08-30T14:35:47;9.18;;;2.10;;
23517;SDS011;11935;50.878;4.392;2022-08-30T14:38:13;7.25;;;1.65;;
23517;SDS011;11935;50.878;4.392;2022-08-30T14:40:39;10.98;;;6.38;;
23517;SDS011;11935;50.878;4.392;2022-08-30T14:43:06;11.05;;;2.08;;
23517;SDS011;11935;50.878;4.392;2022-08-30T14:45:32;6.72;;;1.58;;
23517;SDS011;11935;50.878;4.392;2022-08-30T14:47:58;8.18;;;1.95;;
23517;SDS011;11935;50.878;4.392;2022-08-30T14:50:26;6.75;;;1.83;;
23517;SDS011;11935;50.878;4.392;2022-08-30T14:52:52;5.10;;;1.92;;
23517;SDS011;11935;50.878;4.392;2022-08-30T14:55:18;6.47;;;1.58;;
23517;SDS011;11935;50.878;4.392;2022-08-30T14:57:44;5.57;;;1.90;;
23517;SDS011;11935;50.878;4.392;2022-08-30T15:00:12;7.60;;;1.52;;
23517;SDS011;11935;50.878;4.392;2022-08-30T15:05:06;3.70;;;1.50;;
23517;SDS011;11935;50.878;4.392;2022-08-30T15:07:32;3.15;;;1.40;;
23517;SDS011;11935;50.878;4.392;2022-08-30T15:09:59;3.83;;;1.70;;
23517;SDS011;11935;50.878;4.392;2022-08-30T15:12:26;6.43;;;1.58;;
23517;SDS011;11935;50.878;4.392;2022-08-30T15:14:52;5.60;;;1.65;;
23517;SDS011;11935;50.878;4.392;2022-08-30T15:17:18;7.78;;;1.70;;
23517;SDS011;11935;50.878;4.392;2022-08-30T15:19:44;3.60;;;1.70;;
23517;SDS011;11935;50.878;4.392;2022-08-30T15:22:10;6.20;;;4.13;;
23517;SDS011;11935;50.878;4.392;2022-08-30T15:24:36;4.35;;;1.38;;
23517;SDS011;11935;50.878;4.392;2022-08-30T15:27:04;10.65;;;2.08;;
23517;SDS011;11935;50.878;4.392;2022-08-30T15:29:30;9.23;;;2.00;;
23517;SDS011;11935;50.878;4.392;2022-08-30T15:31:57;10.18;;;2.22;;
23517;SDS011;11935;50.878;4.392;2022-08-30T15:34:24;5.63;;;2.30;;
23517;SDS011;11935;50.878;4.392;2022-08-30T15:36:50;6.32;;;1.85;;
23517;SDS011;11935;50.878;4.392;2022-08-30T15:39:16;4.88;;;1.83;;
23517;SDS011;11935;50.878;4.392;2022-08-30T15:41:42;7.32;;;2.08;;
23517;SDS011;11935;50.878;4.392;2022-08-30T15:44:09;6.07;;;1.58;;
23517;SDS011;11935;50.878;4.392;2022-08-30T15:46:36;8.13;;;1.80;;
23517;SDS011;11935;50.878;4.392;2022-08-30T15:49:05;5.80;;;1.40;;
23517;SDS011;11935;50.878;4.392;2022-08-30T15:53:59;7.22;;;1.42;;
23517;SDS011;11935;50.878;4.392;2022-08-30T15:56:25;9.38;;;1.40;;
23517;SDS011;11935;50.878;4.392;2022-08-30T15:58:54;4.18;;;1.50;;
23517;SDS011;11935;50.878;4.392;2022-08-30T16:01:22;7.05;;;1.98;;
23517;SDS011;11935;50.878;4.392;2022-08-30T16:03:51;13.00;;;1.65;;
23517;SDS011;11935;50.878;4.392;2022-08-30T16:06:21;10.82;;;1.50;;
23517;SDS011;11935;50.878;4.392;2022-08-30T16:08:48;8.32;;;1.88;;
23517;SDS011;11935;50.878;4.392;2022-08-30T16:11:15;4.63;;;1.48;;
23517;SDS011;11935;50.878;4.392;2022-08-30T16:13:43;8.13;;;1.65;;
23517;SDS011;11935;50.878;4.392;2022-08-30T16:16:10;13.43;;;1.77;;
23517;SDS011;11935;50.878;4.392;2022-08-30T16:18:37;6.80;;;1.80;;
23517;SDS011;11935;50.878;4.392;2022-08-30T16:21:04;6.32;;;2.47;;
23517;SDS011;11935;50.878;4.392;2022-08-30T16:23:30;5.63;;;1.77;;
23517;SDS011;11935;50.878;4.392;2022-08-30T16:25:56;6.65;;;1.60;;
23517;SDS011;11935;50.878;4.392;2022-08-30T16:28:22;4.38;;;1.80;;
23517;SDS011;11935;50.878;4.392;2022-08-30T16:30:48;6.32;;;1.83;;
23517;SDS011;11935;50.878;4.392;2022-08-30T16:33:14;9.50;;;2.80;;
23517;SDS011;11935;50.878;4.392;2022-08-30T16:35:40;9.02;;;4.28;;
23517;SDS011;11935;50.878;4.392;2022-08-30T16:38:06;14.02;;;9.30;;
23517;SDS011;11935;50.878;4.392;2022-08-30T16:40:32;16.23;;;12.35;;